Time;durP1;ratioP1;P1;durP2;ratioP2;P2;SDS_P1;SDS_P2;PMS_P1;PMS_P2;Temp;Humidity;BMP_temperature;BMP_pressure;BME280_temperature;BME280_humidity;BME280_pressure;Samples;Min_cycle;Max_cycle;Signal;HPM_P1;HPM_P2
2021/11/13 00:00:24;;;;;;;12.60;4.72;;;;;;;3.38;71.33;97191.72;5026835;28;20037;-80
2021/11/13 00:02:50;;;;;;;23.42;5.43;;;;;;;3.39;70.78;97182.19;5047810;28;20036;-80
2021/11/13 00:05:16;;;;;;;9.45;4.95;;;;;;;3.35;71.29;97178.44;5048103;28;20043;-80
2021/11/13 00:07:42;;;;;;;30.98;5.78;;;;;;;3.32;71.52;97168.56;5043419;28;20029;-80
2021/11/13 00:10:09;;;;;;;9.90;3.92;;;;;;;3.37;71.33;97173.91;5028921;28;20198;-80
2021/11/13 00:12:35;;;;;;;10.35;4.20;;;;;;;3.30;71.60;97157.66;5041000;28;20032;-80
2021/11/13 00:15:02;;;;;;;9.80;4.70;;;;;;;3.36;71.47;97157.66;5031135;28;20375;-80
2021/11/13 00:17:27;;;;;;;9.20;4.20;;;;;;;3.36;70.96;97152.53;5045624;28;20036;-80
2021/11/13 00:19:53;;;;;;;9.18;4.25;;;;;;;3.35;71.17;97147.56;5064325;28;20170;-80
2021/11/13 00:22:18;;;;;;;8.77;5.25;;;;;;;3.26;71.16;97136.69;5086528;28;20089;-80
2021/11/13 00:24:44;;;;;;;8.48;4.00;;;;;;;3.29;71.19;97146.59;5055129;28;20023;-80
2021/11/13 00:27:09;;;;;;;8.25;4.13;;;;;;;3.33;70.80;97137.47;5071222;28;20032;-80
2021/11/13 00:29:35;;;;;;;8.25;3.70;;;;;;;3.32;70.70;97133.31;5064117;28;20028;-80
2021/11/13 00:32:00;;;;;;;8.25;4.25;;;;;;;3.28;70.28;97129.56;5060265;28;20492;-80
2021/11/13 00:34:26;;;;;;;7.10;3.70;;;;;;;3.29;70.73;97138.88;5066897;28;20048;-80
2021/11/13 00:36:51;;;;;;;8.63;4.28;;;;;;;3.28;70.41;97144.22;5030808;28;20048;-80
2021/11/13 00:39:17;;;;;;;8.80;4.60;;;;;;;3.22;71.19;97134.69;5048974;28;20398;-80
2021/11/13 00:41:43;;;;;;;10.80;4.75;;;;;;;3.21;70.68;97133.13;5050801;28;20110;-80
2021/11/13 00:44:09;;;;;;;9.57;4.57;;;;;;;3.25;70.88;97129.16;5031092;28;20036;-80
2021/11/13 00:46:35;;;;;;;10.18;5.22;;;;;;;3.27;69.84;97116.88;5032302;28;20040;-80
2021/11/13 00:49:00;;;;;;;10.43;5.50;;;;;;;3.27;70.81;97111.75;5065421;28;20032;-80
2021/11/13 00:51:26;;;;;;;9.25;5.03;;;;;;;3.24;70.79;97100.09;5056418;28;20029;-80
2021/11/13 00:53:51;;;;;;;10.43;5.07;;;;;;;3.23;70.87;97106.22;5014952;28;20057;-80
2021/11/13 00:56:16;;;;;;;10.25;5.18;;;;;;;3.27;70.81;97106.59;4997559;28;20033;-80
2021/11/13 00:58:42;;;;;;;11.02;5.60;;;;;;;3.23;70.58;97102.84;5030930;28;20047;-80
2021/11/13 01:01:07;;;;;;;9.60;5.57;;;;;;;3.31;71.46;97098.28;5026381;28;20024;-80
2021/11/13 01:03:34;;;;;;;10.82;5.22;;;;;;;3.29;70.92;97102.03;5034609;28;20381;-80
2021/11/13 01:05:59;;;;;;;11.73;5.88;;;;;;;3.41;70.85;97103.03;5034324;28;20040;-80
2021/11/13 01:08:25;;;;;;;12.07;5.70;;;;;;;3.32;70.29;97102.44;5051253;28;20025;-80
2021/11/13 01:10:51;;;;;;;9.30;5.03;;;;;;;3.38;70.85;97100.84;5050928;28;20054;-80
2021/11/13 01:13:17;;;;;;;11.00;5.20;;;;;;;3.35;71.28;97106.41;5050303;28;20544;-80
2021/11/13 01:15:42;;;;;;;9.80;5.88;;;;;;;3.26;71.02;97099.88;5044732;28;20033;-80
2021/11/13 01:18:08;;;;;;;10.13;5.07;;;;;;;3.27;71.00;97091.16;5032288;28;20055;-80
2021/11/13 01:20:34;;;;;;;12.38;5.40;;;;;;;3.19;70.48;97095.53;5043494;28;20036;-80
2021/11/13 01:23:00;;;;;;;9.40;5.72;;;;;;;3.23;71.01;97100.28;5043414;28;20158;-80
2021/11/13 01:25:27;;;;;;;12.25;5.93;;;;;;;3.25;71.25;97099.06;5028994;28;20020;-80
2021/11/13 01:27:52;;;;;;;10.27;5.15;;;;;;;3.31;70.54;97097.50;5061995;28;20447;-80
2021/11/13 01:30:18;;;;;;;11.95;5.28;;;;;;;3.34;70.51;97091.94;5012442;28;20056;-80
2021/11/13 01:32:44;;;;;;;12.73;5.93;;;;;;;3.20;70.76;97096.31;5030418;28;20662;-80
2021/11/13 01:35:10;;;;;;;11.40;5.82;;;;;;;3.22;70.61;97096.88;5016025;28;20025;-80
2021/11/13 01:37:36;;;;;;;10.65;5.75;;;;;;;3.19;71.17;97089.59;5055453;28;20041;-80
2021/11/13 01:40:04;;;;;;;11.52;5.55;;;;;;;3.28;70.70;97100.47;5045036;28;20039;-80
2021/11/13 01:42:30;;;;;;;11.13;5.28;;;;;;;3.33;70.28;97110.97;5049441;28;20051;-80
2021/11/13 01:44:56;;;;;;;10.73;5.55;;;;;;;3.33;70.93;97110.97;5044367;28;20037;-80
2021/11/13 01:47:22;;;;;;;11.55;6.22;;;;;;;3.32;70.71;97120.44;5013298;28;20033;-80
2021/11/13 01:49:48;;;;;;;11.55;6.28;;;;;;;3.18;70.21;97113.72;5031135;28;20523;-80
2021/11/13 01:52:15;;;;;;;12.80;6.38;;;;;;;3.10;70.79;97116.50;5031460;28;20020;-80
2021/11/13 01:54:42;;;;;;;11.63;5.43;;;;;;;3.15;70.72;97117.50;5053040;28;20056;-80
2021/11/13 01:57:10;;;;;;;11.82;6.20;;;;;;;3.17;71.12;97117.28;5052215;28;20039;-80
2021/11/13 01:59:37;;;;;;;13.88;5.57;;;;;;;3.22;70.88;97108.97;5042167;28;20028;-80
2021/11/13 02:02:03;;;;;;;8.55;5.07;;;;;;;3.23;71.40;97110.56;5021998;28;20055;-80
2021/11/13 02:04:30;;;;;;;10.35;5.97;;;;;;;3.17;71.53;97105.22;5013128;28;20118;-80
2021/11/13 02:06:55;;;;;;;11.02;5.80;;;;;;;3.17;71.36;97102.66;5049265;28;20550;-80
2021/11/13 02:09:21;;;;;;;11.25;5.82;;;;;;;3.26;72.21;97100.66;5063447;28;20123;-80
2021/11/13 02:11:46;;;;;;;14.05;6.55;;;;;;;3.30;71.12;97099.28;5051734;28;20046;-81
2021/11/13 02:14:11;;;;;;;11.48;7.18;;;;;;;3.30;71.42;97107.00;5023314;28;20504;-80
2021/11/13 02:16:37;;;;;;;14.68;5.97;;;;;;;3.30;71.53;97101.06;5030783;28;20135;-81
2021/11/13 02:19:02;;;;;;;9.57;5.65;;;;;;;3.38;71.70;97098.28;5031227;28;20062;-80
2021/11/13 02:21:28;;;;;;;10.95;6.47;;;;;;;3.27;71.65;97091.94;5057486;28;20028;-81
2021/11/13 02:23:53;;;;;;;12.07;5.90;;;;;;;3.28;71.86;97096.09;5058753;28;20028;-81
2021/11/13 02:26:21;;;;;;;12.23;6.35;;;;;;;3.22;71.67;97091.75;5031611;28;20027;-81
2021/11/13 02:28:47;;;;;;;12.18;6.35;;;;;;;3.24;72.19;97091.56;5028578;28;20049;-81
2021/11/13 02:31:12;;;;;;;12.30;6.30;;;;;;;3.32;71.44;97093.94;5034001;28;20107;-80
2021/11/13 02:33:39;;;;;;;13.27;6.97;;;;;;;3.21;71.98;97091.97;5050853;28;20024;-80
2021/11/13 02:36:06;;;;;;;13.93;7.13;;;;;;;3.18;72.17;97093.16;5033100;28;20036;-80
2021/11/13 02:38:38;;;;;;;13.98;7.13;;;;;;;3.24;72.11;97083.84;5053405;28;20059;-80
2021/11/13 02:41:06;;;;;;;12.77;7.00;;;;;;;3.35;72.10;97090.97;5070392;28;20073;-81
2021/11/13 02:43:33;;;;;;;13.90;7.43;;;;;;;3.48;72.58;97078.06;5070338;28;20066;-80
2021/11/13 02:46:01;;;;;;;14.98;7.80;;;;;;;3.51;72.29;97084.59;5053683;28;20032;-81
2021/11/13 02:48:29;;;;;;;13.38;7.30;;;;;;;3.52;72.04;97076.66;5027707;28;20039;-80
2021/11/13 02:50:55;;;;;;;15.82;8.65;;;;;;;3.58;72.10;97087.16;5036525;28;20123;-80
2021/11/13 02:53:23;;;;;;;14.05;7.60;;;;;;;3.65;72.09;97077.63;5070075;28;20040;-80
2021/11/13 02:55:50;;;;;;;14.00;7.40;;;;;;;3.72;71.47;97093.88;5069487;28;20181;-80
2021/11/13 02:58:16;;;;;;;13.32;7.70;;;;;;;3.64;71.85;97082.00;5053380;28;20130;-80
2021/11/13 03:00:42;;;;;;;14.95;8.13;;;;;;;3.65;71.62;97064.75;5053261;28;20550;-80
2021/11/13 03:03:08;;;;;;;14.05;7.57;;;;;;;3.75;71.55;97098.59;5053175;28;20028;-80
2021/11/13 03:05:45;;;;;;;12.57;7.45;;;;;;;3.64;72.25;97094.09;5053190;28;20028;-80
2021/11/13 03:08:10;;;;;;;13.25;7.50;;;;;;;3.80;70.49;97092.84;5052786;28;20505;-80
2021/11/13 03:10:37;;;;;;;13.60;7.45;;;;;;;3.68;71.68;97083.16;5069393;28;20020;-80
2021/11/13 03:13:03;;;;;;;13.88;7.75;;;;;;;3.71;72.30;97087.91;5062745;28;20032;-80
2021/11/13 03:15:28;;;;;;;15.70;6.93;;;;;;;3.73;72.19;97074.84;5069700;28;20036;-80
2021/11/13 03:17:55;;;;;;;15.02;9.05;;;;;;;3.81;72.28;97072.03;5052715;28;20084;-81
2021/11/13 03:20:23;;;;;;;13.02;7.55;;;;;;;3.74;72.15;97066.91;5045894;28;20020;-81
2021/11/13 03:22:49;;;;;;;12.88;7.80;;;;;;;3.88;71.47;97066.88;5029259;28;20036;-81
2021/11/13 03:25:17;;;;;;;15.10;8.00;;;;;;;3.91;71.64;97067.25;4997369;28;20413;-81
2021/11/13 03:27:49;;;;;;;14.20;8.50;;;;;;;3.92;71.54;97071.41;5012623;28;20052;-80
2021/11/13 03:30:14;;;;;;;12.95;7.13;;;;;;;4.07;71.29;97067.78;4996685;28;20067;-80
2021/11/13 03:32:41;;;;;;;14.35;7.88;;;;;;;4.09;71.41;97076.09;5013316;28;20491;-80
2021/11/13 03:35:07;;;;;;;13.95;7.93;;;;;;;4.13;71.44;97079.84;5013168;28;20028;-80
2021/11/13 03:37:33;;;;;;;11.63;6.97;;;;;;;4.06;70.72;97068.78;5012984;28;20465;-80
2021/11/13 03:39:59;;;;;;;13.23;8.15;;;;;;;4.17;72.23;97070.72;5048905;28;20437;-80
2021/11/13 03:42:30;;;;;;;15.52;8.23;;;;;;;4.17;71.80;97055.25;5033971;28;20032;-80
2021/11/13 03:44:56;;;;;;;15.05;9.00;;;;;;;4.17;72.26;97044.94;5050604;28;20032;-80
2021/11/13 03:47:22;;;;;;;14.48;7.32;;;;;;;4.21;71.42;97035.78;5053158;28;20040;-80
2021/11/13 03:49:47;;;;;;;17.65;8.38;;;;;;;4.25;72.03;97036.97;5033997;28;20489;-80
2021/11/13 03:52:12;;;;;;;16.77;9.02;;;;;;;4.24;71.95;97019.94;5041907;28;20028;-80
2021/11/13 03:54:38;;;;;;;14.32;7.95;;;;;;;4.19;72.30;97009.44;5053629;28;20104;-80
2021/11/13 03:57:04;;;;;;;14.35;8.38;;;;;;;4.38;72.71;97030.16;5036214;28;20033;-80
2021/11/13 03:59:30;;;;;;;14.48;8.20;;;;;;;4.37;71.87;97024.22;5053221;28;20089;-80
2021/11/13 04:01:56;;;;;;;13.38;7.68;;;;;;;4.42;71.92;97026.16;5052855;28;20044;-80
2021/11/13 04:04:22;;;;;;;15.32;8.80;;;;;;;4.47;71.78;97049.53;5020501;28;20420;-80
2021/11/13 04:06:47;;;;;;;15.20;9.13;;;;;;;4.55;71.76;97057.00;5053111;28;20082;-80
2021/11/13 04:09:13;;;;;;;14.45;8.18;;;;;;;4.58;71.61;97071.28;5050151;28;20040;-80
2021/11/13 04:11:38;;;;;;;13.63;8.15;;;;;;;4.58;71.67;97066.91;5071419;28;20113;-80
2021/11/13 04:14:03;;;;;;;14.55;7.78;;;;;;;4.55;71.58;97063.97;5053407;28;20032;-79
2021/11/13 04:16:29;;;;;;;15.15;8.10;;;;;;;4.51;71.38;97055.88;5067452;28;20037;-79
2021/11/13 04:18:54;;;;;;;17.00;9.10;;;;;;;4.53;72.38;97040.19;5068983;28;20478;-80
2021/11/13 04:21:20;;;;;;;14.23;8.05;;;;;;;4.58;71.83;97051.44;5036644;28;20024;-80
2021/11/13 04:23:45;;;;;;;12.65;7.43;;;;;;;4.62;71.89;97044.88;5020297;28;20029;-79
2021/11/13 04:26:11;;;;;;;13.27;8.32;;;;;;;4.64;72.16;97045.47;5053101;28;20098;-79
2021/11/13 04:28:37;;;;;;;15.90;8.98;;;;;;;4.66;71.96;97046.03;5036988;28;20020;-80
2021/11/13 04:31:02;;;;;;;17.30;8.98;;;;;;;4.68;72.52;97046.63;5052607;28;20036;-80
2021/11/13 04:33:29;;;;;;;15.15;8.98;;;;;;;4.59;72.25;97037.56;5053250;28;20082;-79
2021/11/13 04:36:09;;;;;;;14.38;8.07;;;;;;;4.67;72.92;97044.25;5052683;28;20482;-80
2021/11/13 04:38:35;;;;;;;13.85;7.78;;;;;;;4.79;72.65;97042.56;5055232;28;20438;-80
2021/11/13 04:41:04;;;;;;;15.30;8.70;;;;;;;4.77;72.61;97030.88;5053356;28;20039;-79
2021/11/13 04:43:29;;;;;;;18.67;8.48;;;;;;;4.88;72.52;97027.59;5052881;28;20491;-79
2021/11/13 04:45:55;;;;;;;13.98;8.95;;;;;;;4.95;72.56;97024.97;5070994;28;20107;-79
2021/11/13 04:48:20;;;;;;;13.75;8.45;;;;;;;4.98;71.71;97017.59;5020013;28;20490;-79
2021/11/13 04:50:46;;;;;;;14.45;8.63;;;;;;;4.98;72.43;97020.19;5052806;28;20155;-79
2021/11/13 04:53:12;;;;;;;13.27;8.50;;;;;;;5.01;72.15;97016.41;5036349;28;20028;-79
2021/11/13 04:55:37;;;;;;;15.52;8.65;;;;;;;5.11;72.36;97010.75;5052044;28;20119;-79
2021/11/13 04:58:03;;;;;;;14.70;8.55;;;;;;;5.15;72.49;97014.47;5036460;28;20430;-79
2021/11/13 05:00:30;;;;;;;17.92;9.38;;;;;;;5.16;72.23;97008.34;5036778;28;20150;-79
2021/11/13 05:02:55;;;;;;;14.88;9.07;;;;;;;5.23;71.76;97016.78;5036512;28;20118;-79
2021/11/13 05:05:21;;;;;;;14.18;8.52;;;;;;;5.24;71.93;97024.34;5052595;28;20067;-79
2021/11/13 05:07:47;;;;;;;14.93;8.40;;;;;;;5.22;71.60;97026.31;5036126;28;20040;-79
2021/11/13 05:10:13;;;;;;;16.00;8.38;;;;;;;5.24;71.70;97023.53;5036099;28;20036;-79
2021/11/13 05:12:39;;;;;;;18.40;8.43;;;;;;;5.27;70.99;97023.09;5052826;28;20036;-79
2021/11/13 05:15:06;;;;;;;16.05;9.23;;;;;;;5.28;71.71;97018.72;5035851;28;20037;-80
2021/11/13 05:17:31;;;;;;;14.40;9.50;;;;;;;5.36;72.18;97018.44;5070222;28;20044;-79
2021/11/13 05:19:57;;;;;;;14.93;8.32;;;;;;;5.39;71.18;97016.22;5052698;28;20103;-79
2021/11/13 05:22:23;;;;;;;15.40;8.48;;;;;;;5.43;72.14;97009.63;5052649;28;20040;-80
2021/11/13 05:24:49;;;;;;;15.60;8.82;;;;;;;5.50;71.55;97006.19;5070511;28;20348;-79
2021/11/13 05:27:14;;;;;;;17.58;8.57;;;;;;;5.50;72.08;97012.16;5051986;28;20583;-80
2021/11/13 05:29:39;;;;;;;15.15;9.00;;;;;;;5.52;71.89;97017.06;5035862;28;20482;-79
2021/11/13 05:32:05;;;;;;;17.63;10.35;;;;;;;5.55;71.16;97012.28;5017226;28;20056;-79
2021/11/13 05:34:31;;;;;;;19.27;10.27;;;;;;;5.56;71.73;97013.06;5035453;28;20367;-79
2021/11/13 05:36:56;;;;;;;15.40;9.57;;;;;;;5.59;71.98;97013.44;5035542;28;20245;-79
2021/11/13 05:39:22;;;;;;;17.90;10.10;;;;;;;5.65;71.29;97016.16;5052122;28;20345;-79
2021/11/13 05:41:47;;;;;;;17.63;9.95;;;;;;;5.69;71.95;97015.50;5019240;28;20029;-79
2021/11/13 05:44:13;;;;;;;15.73;9.88;;;;;;;5.79;72.30;97017.56;5052095;28;20370;-79
2021/11/13 05:46:38;;;;;;;19.30;10.65;;;;;;;5.75;72.13;97014.63;5018821;28;20381;-79
2021/11/13 05:49:04;;;;;;;18.83;10.13;;;;;;;5.80;72.04;97012.19;5051759;28;20470;-79
2021/11/13 05:51:29;;;;;;;18.00;10.65;;;;;;;5.85;71.72;97010.75;5034925;28;20187;-80
2021/11/13 05:53:54;;;;;;;16.42;10.15;;;;;;;5.91;72.22;97015.84;5052350;28;20024;-80
2021/11/13 05:56:20;;;;;;;17.17;10.10;;;;;;;6.02;71.69;97009.19;5069218;28;20039;-79
2021/11/13 05:58:45;;;;;;;15.93;10.10;;;;;;;6.07;71.19;97011.91;5069342;28;20032;-80
2021/11/13 06:01:11;;;;;;;18.42;10.25;;;;;;;6.07;72.23;97005.94;5068584;28;20401;-79
2021/11/13 06:03:36;;;;;;;18.65;10.80;;;;;;;6.16;71.75;97014.97;5034457;28;20222;-79
2021/11/13 06:06:01;;;;;;;21.50;10.20;;;;;;;6.15;71.64;97001.25;5050808;28;20059;-79
2021/11/13 06:08:27;;;;;;;18.40;10.43;;;;;;;6.20;71.64;96995.41;5049443;28;20085;-79
2021/11/13 06:10:52;;;;;;;18.08;10.20;;;;;;;6.28;72.24;97002.06;5062518;28;20045;-79
2021/11/13 06:13:18;;;;;;;17.35;10.35;;;;;;;6.37;71.88;97003.31;5063031;28;20059;-79
2021/11/13 06:15:43;;;;;;;21.52;11.20;;;;;;;6.41;71.50;97007.06;5033098;28;20472;-79
2021/11/13 06:18:08;;;;;;;19.27;10.15;;;;;;;6.44;72.01;97000.63;5030079;28;20036;-79
2021/11/13 06:20:34;;;;;;;19.85;10.63;;;;;;;6.53;71.62;97014.84;5049995;28;20028;-79
2021/11/13 06:22:59;;;;;;;17.80;10.30;;;;;;;6.55;70.20;97023.94;5068714;28;20074;-79
2021/11/13 06:25:25;;;;;;;18.60;10.35;;;;;;;6.53;71.79;97025.19;5004178;28;20407;-79
2021/11/13 06:27:51;;;;;;;16.17;10.43;;;;;;;6.55;71.68;97028.34;5029889;28;20033;-79
2021/11/13 06:30:17;;;;;;;18.95;10.73;;;;;;;6.60;72.45;97032.84;5047116;28;20058;-79
2021/11/13 06:32:43;;;;;;;17.42;9.45;;;;;;;6.57;72.12;97040.03;5050358;28;20036;-80
2021/11/13 06:35:10;;;;;;;16.65;10.35;;;;;;;6.56;71.20;97045.41;5034190;28;20103;-79
2021/11/13 06:37:36;;;;;;;17.02;10.43;;;;;;;6.66;71.54;97039.72;5050728;28;20108;-80
2021/11/13 06:40:03;;;;;;;19.70;10.95;;;;;;;6.68;72.47;97037.69;5034593;28;20531;-80
2021/11/13 06:42:29;;;;;;;17.95;11.05;;;;;;;6.74;71.35;97031.63;5050532;28;20056;-80
2021/11/13 06:44:54;;;;;;;19.08;11.20;;;;;;;6.77;71.92;97030.38;5050850;28;20159;-79
2021/11/13 06:47:19;;;;;;;17.60;11.45;;;;;;;6.79;71.78;97036.94;5058855;28;20039;-80
2021/11/13 06:49:45;;;;;;;18.17;10.63;;;;;;;6.85;71.85;97040.41;5070563;28;20043;-80
2021/11/13 06:52:10;;;;;;;19.00;10.43;;;;;;;6.84;72.17;97044.03;5070448;28;20047;-80
2021/11/13 06:54:36;;;;;;;21.85;11.38;;;;;;;6.85;72.27;97046.38;5053851;28;20054;-80
2021/11/13 06:57:04;;;;;;;20.30;11.65;;;;;;;6.88;72.34;97045.94;5070557;28;20098;-80
2021/11/13 06:59:31;;;;;;;20.80;11.05;;;;;;;6.99;72.37;97046.97;5070945;28;20484;-80
2021/11/13 07:01:56;;;;;;;20.25;11.32;;;;;;;7.13;71.85;97047.53;5070410;28;20123;-80
2021/11/13 07:04:22;;;;;;;24.10;12.90;;;;;;;7.18;72.13;97052.03;5088392;28;20437;-80
2021/11/13 07:06:47;;;;;;;22.38;11.38;;;;;;;7.12;72.32;97049.31;5046349;28;20038;-80
2021/11/13 07:09:13;;;;;;;21.50;11.52;;;;;;;7.25;72.07;97044.97;5039241;28;20031;-80
2021/11/13 07:11:38;;;;;;;24.13;12.20;;;;;;;7.29;71.80;97049.44;5054933;28;20036;-80
2021/11/13 07:14:04;;;;;;;24.48;11.98;;;;;;;7.26;72.20;97055.06;5050166;28;20048;-80
2021/11/13 07:16:29;;;;;;;25.85;12.05;;;;;;;7.29;71.61;97059.78;5049679;28;20039;-80
2021/11/13 07:18:54;;;;;;;24.30;12.23;;;;;;;7.37;71.84;97065.66;5050307;28;20394;-80
2021/11/13 07:21:20;;;;;;;23.83;12.52;;;;;;;7.33;72.14;97062.72;5038856;28;20035;-80
2021/11/13 07:23:45;;;;;;;23.65;11.38;;;;;;;7.34;71.65;97068.72;5013806;28;20194;-80
2021/11/13 07:26:13;;;;;;;21.65;11.23;;;;;;;7.31;72.00;97070.72;5029749;28;20036;-80
2021/11/13 07:28:40;;;;;;;23.60;11.45;;;;;;;7.40;71.94;97068.59;5014173;28;20703;-80
2021/11/13 07:31:07;;;;;;;21.67;12.45;;;;;;;7.43;72.41;97069.94;5006575;28;20085;-80
2021/11/13 07:33:32;;;;;;;23.85;12.35;;;;;;;7.54;72.32;97066.56;5069399;28;20028;-80
2021/11/13 07:35:58;;;;;;;20.20;11.18;;;;;;;7.57;71.76;97065.31;5070201;28;20107;-80
2021/11/13 07:38:23;;;;;;;22.40;12.00;;;;;;;7.60;71.81;97057.84;5036501;28;20031;-80
2021/11/13 07:40:49;;;;;;;24.52;12.55;;;;;;;7.60;71.91;97057.84;5068251;28;20372;-80
2021/11/13 07:43:14;;;;;;;22.73;12.15;;;;;;;7.72;72.23;97063.03;5016811;28;20248;-80
2021/11/13 07:45:40;;;;;;;21.33;11.43;;;;;;;7.79;71.54;97066.28;5049638;28;20047;-80
2021/11/13 07:48:07;;;;;;;19.60;11.25;;;;;;;7.77;71.84;97060.53;5068188;28;20060;-80
2021/11/13 07:50:35;;;;;;;21.45;11.20;;;;;;;7.88;71.81;97064.91;5033052;28;20115;-80
2021/11/13 07:53:01;;;;;;;23.85;11.93;;;;;;;7.90;71.79;97061.28;5017553;28;20075;-80
2021/11/13 07:55:27;;;;;;;22.63;11.77;;;;;;;7.91;71.84;97065.47;5067323;28;20387;-80
2021/11/13 07:57:52;;;;;;;22.23;11.93;;;;;;;7.90;72.25;97069.88;5017000;28;20036;-80
2021/11/13 08:00:20;;;;;;;21.13;11.98;;;;;;;7.90;72.43;97069.88;5050101;28;20051;-80
2021/11/13 08:02:45;;;;;;;24.08;12.43;;;;;;;8.02;71.71;97073.22;5016989;28;20047;-80
2021/11/13 08:05:11;;;;;;;26.20;12.43;;;;;;;8.05;71.62;97066.78;5032411;28;20475;-80
2021/11/13 08:07:37;;;;;;;21.60;11.55;;;;;;;8.10;71.78;97068.69;5037714;28;20443;-80
2021/11/13 08:10:03;;;;;;;21.00;10.60;;;;;;;8.11;71.96;97058.09;5050188;28;20103;-80
2021/11/13 08:12:29;;;;;;;23.27;11.82;;;;;;;8.17;71.86;97056.38;5030343;28;20033;-79
2021/11/13 08:14:54;;;;;;;30.15;12.63;;;;;;;8.14;72.10;97054.22;5013385;28;20035;-80
2021/11/13 08:17:20;;;;;;;22.70;11.38;;;;;;;8.16;71.97;97057.41;5060357;28;20118;-80
2021/11/13 08:19:45;;;;;;;23.92;11.75;;;;;;;8.14;72.02;97051.63;5041752;28;20037;-80
2021/11/13 08:22:10;;;;;;;26.63;13.52;;;;;;;8.18;72.48;97055.34;5013975;28;20064;-80
2021/11/13 08:24:36;;;;;;;31.05;12.98;;;;;;;8.14;72.43;97057.63;5046350;28;20068;-80
2021/11/13 08:27:05;;;;;;;22.83;12.30;;;;;;;8.19;71.98;97052.53;5026516;28;20414;-80
2021/11/13 08:29:30;;;;;;;26.45;12.95;;;;;;;8.26;71.68;97067.97;5029881;28;20060;-80
2021/11/13 08:31:56;;;;;;;22.40;12.70;;;;;;;8.33;71.96;97063.41;5021546;28;20505;-80
2021/11/13 08:34:21;;;;;;;26.65;12.27;;;;;;;8.30;71.58;97056.09;5052458;28;20025;-80
2021/11/13 08:36:47;;;;;;;25.23;12.20;;;;;;;8.27;72.37;97053.19;5036320;28;20041;-80
2021/11/13 08:39:12;;;;;;;27.67;12.85;;;;;;;8.32;72.13;97055.88;5070984;28;20036;-80
2021/11/13 08:41:37;;;;;;;21.20;12.30;;;;;;;8.44;71.64;97054.03;5071251;28;20115;-80
2021/11/13 08:44:04;;;;;;;23.33;12.80;;;;;;;8.44;71.73;97054.81;5053104;28;20056;-80
2021/11/13 08:46:33;;;;;;;24.10;12.32;;;;;;;8.41;71.58;97063.06;5035270;28;20505;-80
2021/11/13 08:48:59;;;;;;;22.48;10.85;;;;;;;8.41;72.05;97059.66;5018949;28;20119;-80
2021/11/13 08:51:24;;;;;;;20.38;11.55;;;;;;;8.49;71.75;97053.34;5052975;28;20048;-80
2021/11/13 08:53:55;;;;;;;26.65;12.18;;;;;;;8.51;71.65;97054.66;5036312;28;20028;-80
2021/11/13 08:56:26;;;;;;;21.80;11.57;;;;;;;8.25;72.17;97045.63;5037030;28;20425;-78
2021/11/13 08:58:52;;;;;;;23.48;12.18;;;;;;;8.54;71.72;97046.41;5053022;28;20118;-80
2021/11/13 09:01:18;;;;;;;21.98;11.02;;;;;;;8.64;71.75;97043.22;5019337;28;20217;-80
2021/11/13 09:03:43;;;;;;;23.30;11.55;;;;;;;8.72;71.71;97050.63;5048203;28;20036;-80
2021/11/13 09:06:12;;;;;;;24.75;12.38;;;;;;;8.60;72.24;97058.47;5015847;28;20029;-80
2021/11/13 09:08:39;;;;;;;23.83;12.25;;;;;;;8.59;72.19;97040.53;5025099;28;20025;-80
2021/11/13 09:11:06;;;;;;;24.65;12.93;;;;;;;8.61;72.29;97046.28;5034173;28;20029;-80
2021/11/13 09:13:33;;;;;;;23.45;12.95;;;;;;;8.75;72.13;97054.53;5052117;28;20049;-80
2021/11/13 09:16:02;;;;;;;26.80;13.80;;;;;;;8.67;71.99;97053.13;5051905;28;20031;-80
2021/11/13 09:18:28;;;;;;;23.92;12.68;;;;;;;8.89;71.48;97058.38;5053734;28;20032;-80
2021/11/13 09:20:53;;;;;;;22.33;12.10;;;;;;;8.97;72.07;97057.22;5069977;28;20044;-80
2021/11/13 09:23:19;;;;;;;22.25;11.65;;;;;;;9.00;72.22;97051.56;5035738;28;20090;-80
2021/11/13 09:25:46;;;;;;;28.25;13.00;;;;;;;8.87;72.33;97046.69;5035231;28;20047;-80
2021/11/13 09:28:12;;;;;;;22.42;12.88;;;;;;;8.92;72.63;97051.94;5018651;28;20124;-80
2021/11/13 09:30:38;;;;;;;19.77;11.45;;;;;;;8.98;72.03;97056.22;5045861;28;20493;-80
2021/11/13 09:33:05;;;;;;;22.48;10.65;;;;;;;8.84;71.37;97055.72;5035115;28;20024;-79
2021/11/13 09:35:31;;;;;;;20.52;11.50;;;;;;;8.97;72.38;97057.22;5069190;28;20506;-80
2021/11/13 09:37:57;;;;;;;18.63;10.57;;;;;;;9.00;72.19;97062.72;5032845;28;20063;-80
2021/11/13 09:40:25;;;;;;;23.83;12.50;;;;;;;8.88;72.04;97050.88;5048205;28;20032;-80
2021/11/13 09:42:53;;;;;;;20.05;11.93;;;;;;;8.99;71.95;97055.16;5032789;28;20034;-80
2021/11/13 09:45:19;;;;;;;21.20;12.00;;;;;;;9.05;71.78;97059.44;5034456;28;20032;-80
2021/11/13 09:47:51;;;;;;;22.52;12.88;;;;;;;8.92;72.26;97051.94;5034730;28;20028;-80
2021/11/13 09:50:17;;;;;;;24.67;11.88;;;;;;;9.10;71.69;97050.91;5034476;28;20313;-80
2021/11/13 09:52:43;;;;;;;21.08;12.48;;;;;;;9.02;72.28;97057.31;5015613;28;20025;-80
2021/11/13 09:55:10;;;;;;;18.63;11.18;;;;;;;9.11;71.91;97057.69;5031370;28;20407;-80
2021/11/13 09:57:37;;;;;;;22.30;13.75;;;;;;;9.14;72.10;97058.00;5018673;28;20021;-80
2021/11/13 10:00:09;;;;;;;25.73;12.82;;;;;;;9.06;72.01;97058.38;5053013;28;20024;-80
2021/11/13 10:02:34;;;;;;;20.30;11.00;;;;;;;9.28;71.27;97053.25;5031476;28;20033;-79
2021/11/13 10:05:00;;;;;;;24.13;12.23;;;;;;;9.19;71.45;97055.47;5031265;28;20032;-80
2021/11/13 10:07:25;;;;;;;22.10;12.13;;;;;;;9.27;71.66;97045.69;5031579;28;20033;-80
2021/11/13 10:09:51;;;;;;;23.73;12.38;;;;;;;9.25;71.79;97051.13;5014731;28;20111;-80
2021/11/13 10:12:16;;;;;;;20.92;12.70;;;;;;;9.35;71.69;97045.28;4998113;28;20406;-80
2021/11/13 10:14:42;;;;;;;20.33;10.88;;;;;;;9.41;71.19;97044.34;5015178;28;20558;-80
2021/11/13 10:17:22;;;;;;;23.20;12.57;;;;;;;9.17;72.15;97044.53;5014708;28;20454;-80
2021/11/13 10:19:48;;;;;;;21.35;12.20;;;;;;;9.43;71.34;97044.13;5014568;28;20028;-80
2021/11/13 10:22:14;;;;;;;23.70;12.68;;;;;;;9.40;71.39;97042.78;5017984;28;20039;-81
2021/11/13 10:24:53;;;;;;;19.60;11.40;;;;;;;9.28;71.41;97048.06;5034101;28;20556;-80
2021/11/13 10:27:19;;;;;;;21.35;12.02;;;;;;;9.44;70.59;97036.09;5051317;28;20024;-81
2021/11/13 10:29:47;;;;;;;21.38;11.70;;;;;;;9.51;71.54;97041.09;5033441;28;20090;-80
2021/11/13 10:32:16;;;;;;;20.90;11.63;;;;;;;9.51;71.62;97035.88;5034434;28;20158;-80
2021/11/13 10:34:48;;;;;;;19.85;11.85;;;;;;;9.50;71.56;97037.69;5033933;28;20101;-81
2021/11/13 10:37:25;;;;;;;20.35;11.90;;;;;;;9.45;71.77;97035.03;5016974;28;20079;-80
2021/11/13 10:39:56;;;;;;;20.48;11.00;;;;;;;9.42;71.82;97030.31;5050331;28;20033;-80
2021/11/13 10:42:22;;;;;;;20.75;11.90;;;;;;;9.49;71.91;97025.75;5033967;28;20050;-80
2021/11/13 10:44:51;;;;;;;16.90;10.27;;;;;;;9.59;71.68;97026.91;5017387;28;20143;-81
2021/11/13 10:47:42;;;;;;;17.42;9.90;;;;;;;9.40;70.90;97023.81;5033649;28;20051;-80
2021/11/13 10:50:14;;;;;;;18.13;10.65;;;;;;;9.46;71.52;97023.63;5033506;28;20044;-80
2021/11/13 10:52:40;;;;;;;16.35;10.50;;;;;;;9.71;71.41;97024.97;5013760;28;20025;-80
2021/11/13 10:55:15;;;;;;;21.10;11.15;;;;;;;9.58;71.28;97020.91;5027708;28;20083;-80
2021/11/13 10:57:41;;;;;;;19.15;10.60;;;;;;;9.82;71.39;97024.06;5047271;28;20052;-80
2021/11/13 11:00:17;;;;;;;17.50;11.18;;;;;;;9.67;71.26;97013.50;5030454;28;20313;-80
2021/11/13 11:03:03;;;;;;;17.88;10.48;;;;;;;9.60;71.60;97018.09;5029961;28;20036;-80
2021/11/13 11:05:44;;;;;;;20.52;11.27;;;;;;;9.57;71.35;97008.94;5029954;28;20380;-80
2021/11/13 11:08:30;;;;;;;22.92;12.25;;;;;;;9.61;70.78;97004.03;5033325;28;20029;-80
2021/11/13 11:10:56;;;;;;;18.08;11.02;;;;;;;9.82;71.60;97005.06;5013847;28;20032;-80
2021/11/13 11:14:01;;;;;;;20.13;11.35;;;;;;;9.51;72.24;97002.09;5014202;28;20568;-80
2021/11/13 11:16:32;;;;;;;21.58;11.50;;;;;;;9.59;72.10;97001.69;4966528;28;20045;-80
2021/11/13 11:19:05;;;;;;;21.65;11.18;;;;;;;9.74;71.48;96998.47;4965270;28;20069;-80
2021/11/13 11:21:55;;;;;;;17.90;11.60;;;;;;;9.77;71.18;96998.00;4972652;28;20216;-80
2021/11/13 11:24:32;;;;;;;17.60;10.80;;;;;;;9.77;71.33;96998.00;4989482;28;20018;-80
2021/11/13 11:27:23;;;;;;;19.75;11.32;;;;;;;9.73;71.72;96991.69;4972630;28;20038;-81